PANTPAKT

Guest
Details From PANT - Annette Island
To PAKT - Ketchikan Intl
Flight Number -
Tags Generated
Created
Modified
Stats Distance 20 nm / 37 km
Max Altitude 0 ft / 0 m
Waypoints 2
Social Downloads 2
Likes 0
Share VATSIM

Download

Looking for another format? Having issues loading an existing format? Contact us
Advertisement - Login to hide

Notes

Generated

Route

PANT PAKT

ID Type Via Altitude Latitude Longitude Leg Dist Tot Dist Heading (true) Name
O PANT APT - 0 ft / 0 m 55.03658˚ -131.58130˚ - 0 nm - -
O PAKT APT - 0 ft / 0 m 55.36288˚ -131.72634˚ 20 nm 20 nm 346° / 346° -

Altitude Profile

Advertisement - Login to hide

PANT

Details ICAO PANT (ANN)
Name ANNETTE ISLAND
Region USA (Alaska)
Timezone America/Juneau (UTC-9.0)
Stats Elevation 119 ft / 36 m (AMSL)
Location 55.039538° -131.572274°
Runways 2
Magnetic Variation 18.454° E

METAR

PANT 140553Z AUTO 14010G20KT 10SM OVC085 11/06 A3020 RMK AO2 SLP227 60000 T01110056 10111 20100 56023 TSNO

Decode

TAF

Not found

Departure Runways

ID Width Length Bearing (true) Bearing (mag) Surface Threshold Offset Overrun Length
02 150 ft / 46 m 5,713 ft / 1,741 m 41.55° 23.10° Gravel 0 ft / 0 m 0 ft / 0 m
12 150 ft / 46 m 7,481 ft / 2,280 m 147.74° 129.29° Asphalt 0 ft / 0 m 0 ft / 0 m
20 150 ft / 46 m 5,713 ft / 1,741 m 221.57° 203.12° Gravel 0 ft / 0 m 0 ft / 0 m
30 150 ft / 46 m 7,481 ft / 2,280 m 327.75° 309.30° Asphalt 0 ft / 0 m 0 ft / 0 m

PAKT

Details ICAO PAKT (KTN)
Name KETCHIKAN INTL
Region USA (Alaska)
Timezone Unknown (UTC+0.0)
Stats Elevation 88 ft / 27 m (AMSL)
Location 55.355545° -131.713737°
Runways 1
Magnetic Variation 18.534° E

METAR

PAKT 140553Z 16006KT 10SM FEW055 SCT070 OVC090 09/07 A3021

Decode

TAF

PAKT 140531Z 1406/1506 15008KT 6SM -RA OVC035 WS020/15030KT FM140900 15012G20KT 6SM -RA OVC030 WS020/15040KT FM141500 14020G32KT 3SM RA BR OVC015 WS020/16045KT FM150000 14010KT 6SM -SHRA SCT015 OVC025 AMD LTD TO CLD VIS AND WIND 1406/1415

Decode

Destination Runways

ID Width Length Bearing (true) Bearing (mag) Surface Threshold Offset Overrun Length
11 150 ft / 46 m 7,485 ft / 2,281 m 135.66° 117.13° Asphalt 0 ft / 0 m 200 ft / 61 m
29 150 ft / 46 m 7,485 ft / 2,281 m 315.68° 297.15° Asphalt 0 ft / 0 m 100 ft / 30 m

Approach Navaids

Runway Type Ident Frequency Range Bearing (true) Bearing (mag) Slope Elevation
11 Localiser IECH 109.30 MHz 18 nm / 33 km 135.69° 117.15° - 66 ft / 20 m (AMSL)
11 Glidescope IECH 109.30 MHz 10 nm / 19 km 135.67° 117.14° 3.61° 76 ft / 23 m (AMSL)
11 DME IECH 109.30 MHz 18 nm / 33 km - - - 98 ft / 30 m (AMSL)